createdAt,value
2022-10-08T00:02:18.100Z,41.20
2022-10-08T00:04:46.233Z,41.12
2022-10-08T00:07:13.376Z,41.01
2022-10-08T00:09:40.701Z,41.11
2022-10-08T00:12:08.106Z,41.33
2022-10-08T00:14:35.217Z,41.05
2022-10-08T00:17:02.388Z,41.06
2022-10-08T00:19:29.760Z,41.03
2022-10-08T00:21:57.317Z,40.92
2022-10-08T00:24:24.437Z,40.88
2022-10-08T00:26:52.586Z,40.73
2022-10-08T00:29:21.287Z,40.79
2022-10-08T00:31:49.147Z,41.00
2022-10-08T00:34:18.223Z,41.14
2022-10-08T00:36:45.578Z,41.37
2022-10-08T00:39:17.143Z,41.30
2022-10-08T00:41:45.763Z,41.31
2022-10-08T00:44:31.718Z,41.02
2022-10-08T00:46:59.098Z,40.79
2022-10-08T00:49:26.240Z,40.94
2022-10-08T00:51:54.548Z,40.83
2022-10-08T00:54:22.377Z,40.69
2022-10-08T00:56:51.295Z,40.79
2022-10-08T00:59:18.423Z,41.01
2022-10-08T01:01:45.857Z,41.08
2022-10-08T01:04:13.228Z,40.74
2022-10-08T01:06:43.419Z,40.79
2022-10-08T01:09:18.904Z,40.76
2022-10-08T01:11:51.941Z,40.67
2022-10-08T01:14:34.757Z,40.69
2022-10-08T01:17:04.646Z,41.02
2022-10-08T01:19:50.929Z,41.22
2022-10-08T01:22:29.721Z,41.28
2022-10-08T01:25:16.893Z,41.64
2022-10-08T01:27:45.719Z,41.86
2022-10-08T01:30:14.680Z,41.59
2022-10-08T01:32:43.904Z,41.35
2022-10-08T01:35:11.933Z,41.42
2022-10-08T01:37:41.311Z,41.50
2022-10-08T01:40:10.243Z,41.74
2022-10-08T01:42:38.109Z,41.82
2022-10-08T01:45:06.932Z,41.79
2022-10-08T01:47:34.039Z,41.60
2022-10-08T01:50:06.186Z,41.56
2022-10-08T01:52:34.541Z,41.61
2022-10-08T01:55:02.449Z,41.39
2022-10-08T01:57:29.710Z,41.39
2022-10-08T01:59:58.495Z,41.49
2022-10-08T02:02:26.050Z,41.55
2022-10-08T02:04:54.448Z,42.19
2022-10-08T02:07:31.397Z,42.17
2022-10-08T02:10:15.219Z,42.24
2022-10-08T02:12:42.609Z,41.98
2022-10-08T02:15:18.400Z,41.82
2022-10-08T02:18:06.209Z,41.97
2022-10-08T02:20:41.210Z,42.06
2022-10-08T02:23:23.821Z,41.77
2022-10-08T02:26:04.222Z,41.89
2022-10-08T02:28:34.387Z,42.02
2022-10-08T02:31:06.081Z,41.78
2022-10-08T02:33:34.656Z,41.36
2022-10-08T02:36:02.212Z,41.49
2022-10-08T02:38:32.733Z,41.45
2022-10-08T02:41:00.207Z,41.86
2022-10-08T02:43:29.420Z,41.35
2022-10-08T02:45:59.630Z,41.56
2022-10-08T02:48:28.090Z,41.45
2022-10-08T02:50:55.486Z,41.32
2022-10-08T02:53:23.420Z,40.99
2022-10-08T02:55:54.865Z,41.09
2022-10-08T02:58:22.424Z,41.71
2022-10-08T03:01:08.321Z,41.48
2022-10-08T03:03:36.806Z,41.41
2022-10-08T03:06:05.039Z,41.03
2022-10-08T03:08:34.351Z,40.96
2022-10-08T03:11:01.783Z,40.64
2022-10-08T03:13:28.899Z,40.81
2022-10-08T03:15:56.145Z,41.01
2022-10-08T03:18:24.975Z,41.20
2022-10-08T03:20:52.076Z,41.11
2022-10-08T03:23:19.432Z,40.85
2022-10-08T03:25:46.822Z,41.07
2022-10-08T03:28:14.272Z,41.26
2022-10-08T03:30:41.542Z,41.23
2022-10-08T03:33:09.020Z,41.25
2022-10-08T03:35:36.198Z,41.18
2022-10-08T03:38:03.348Z,41.09
2022-10-08T03:40:30.967Z,41.24
2022-10-08T03:42:58.090Z,41.10
2022-10-08T03:45:25.228Z,41.33
2022-10-08T03:47:52.614Z,41.43
2022-10-08T03:50:20.549Z,41.51
2022-10-08T03:52:47.915Z,41.96
2022-10-08T03:55:15.628Z,42.27
2022-10-08T03:57:42.784Z,42.35
2022-10-08T04:00:10.236Z,42.55
2022-10-08T04:02:37.729Z,42.59
2022-10-08T04:05:05.026Z,42.25
2022-10-08T04:07:32.136Z,42.54
2022-10-08T04:09:59.544Z,42.54
2022-10-08T04:12:26.671Z,42.67
2022-10-08T04:14:53.820Z,42.48
2022-10-08T04:17:21.223Z,42.68
2022-10-08T04:19:48.518Z,42.99
2022-10-08T04:22:15.686Z,42.58
2022-10-08T04:24:43.246Z,42.62
2022-10-08T04:27:10.375Z,43.25
2022-10-08T04:29:37.509Z,43.19
2022-10-08T04:32:04.972Z,44.92
2022-10-08T04:34:32.960Z,44.60
2022-10-08T04:37:00.103Z,44.80
2022-10-08T04:39:27.499Z,46.99
2022-10-08T04:41:54.600Z,45.79
2022-10-08T04:44:21.903Z,45.05
2022-10-08T04:46:49.399Z,44.19
2022-10-08T04:49:16.563Z,45.05
2022-10-08T04:51:43.637Z,45.53
2022-10-08T04:54:11.042Z,44.92
2022-10-08T04:56:38.349Z,47.91
2022-10-08T04:59:05.525Z,46.85
2022-10-08T05:01:32.988Z,46.39
2022-10-08T05:04:00.579Z,47.66
2022-10-08T05:06:28.765Z,47.01
2022-10-08T05:08:56.458Z,47.48
2022-10-08T05:11:27.591Z,48.18
2022-10-08T05:13:55.153Z,46.79
2022-10-08T05:16:22.717Z,45.94
2022-10-08T05:18:51.916Z,47.44
2022-10-08T05:21:20.236Z,47.68
2022-10-08T05:23:47.631Z,47.95
2022-10-08T05:26:16.123Z,49.75
2022-10-08T05:28:44.173Z,49.01
2022-10-08T05:31:11.721Z,50.68
2022-10-08T05:33:38.908Z,48.93
2022-10-08T05:36:07.146Z,50.38
2022-10-08T05:38:35.485Z,49.85
2022-10-08T05:41:13.489Z,50.75
2022-10-08T05:43:41.067Z,50.48
2022-10-08T05:46:08.199Z,51.93
2022-10-08T05:48:35.677Z,52.84
2022-10-08T05:51:03.630Z,51.91
2022-10-08T05:53:30.763Z,51.01
2022-10-08T05:56:04.713Z,52.67
2022-10-08T05:58:33.894Z,51.96
2022-10-08T06:01:01.401Z,50.52
2022-10-08T06:03:28.776Z,52.72
2022-10-08T06:05:56.088Z,50.65
2022-10-08T06:08:23.217Z,50.28
2022-10-08T06:10:51.395Z,50.12
2022-10-08T06:13:21.567Z,50.60
2022-10-08T06:16:14.982Z,51.87
2022-10-08T06:18:42.406Z,52.17
2022-10-08T06:21:10.761Z,51.43
2022-10-08T06:23:38.518Z,52.08
2022-10-08T06:26:06.870Z,53.62
2022-10-08T06:28:34.771Z,54.79
2022-10-08T06:31:01.947Z,51.28
2022-10-08T06:33:29.448Z,52.27
2022-10-08T06:35:56.609Z,51.80
2022-10-08T06:38:23.725Z,51.93
2022-10-08T06:40:51.336Z,53.70
2022-10-08T06:43:18.919Z,56.11
2022-10-08T06:45:46.258Z,52.96
2022-10-08T06:48:13.893Z,52.46
2022-10-08T06:50:41.121Z,52.61
2022-10-08T06:53:11.866Z,51.50
2022-10-08T06:55:39.341Z,51.09
2022-10-08T06:58:06.449Z,50.78
2022-10-08T07:00:33.694Z,51.02
2022-10-08T07:03:01.454Z,50.30
2022-10-08T07:05:28.601Z,47.89
2022-10-08T07:07:55.754Z,50.33
2022-10-08T07:10:23.268Z,50.71
2022-10-08T07:12:50.704Z,52.15
2022-10-08T07:15:18.237Z,52.87
2022-10-08T07:17:45.660Z,52.71
2022-10-08T07:20:12.930Z,52.31
2022-10-08T07:22:40.075Z,53.04
2022-10-08T07:25:07.648Z,53.76
2022-10-08T07:27:34.769Z,50.98
2022-10-08T07:30:01.883Z,50.27
2022-10-08T07:32:29.280Z,51.37
2022-10-08T07:34:59.937Z,50.81
2022-10-08T07:37:27.285Z,48.00
2022-10-08T07:39:57.444Z,47.26
2022-10-08T07:42:24.568Z,47.87
2022-10-08T07:44:51.700Z,46.89
2022-10-08T07:47:19.173Z,46.32
2022-10-08T07:49:46.317Z,46.44
2022-10-08T07:52:13.479Z,47.13
2022-10-08T07:54:41.030Z,49.28
2022-10-08T07:57:08.437Z,46.22
2022-10-08T07:59:35.875Z,45.17
2022-10-08T08:02:03.498Z,44.60
2022-10-08T08:04:30.996Z,46.08
2022-10-08T08:06:58.106Z,47.43
2022-10-08T08:09:25.289Z,46.23
2022-10-08T08:11:53.187Z,45.83
2022-10-08T08:14:21.920Z,45.23
2022-10-08T08:16:49.139Z,45.77
2022-10-08T08:19:16.568Z,43.63
2022-10-08T08:21:43.794Z,44.37
2022-10-08T08:24:11.697Z,44.00
2022-10-08T08:26:39.778Z,44.05
2022-10-08T08:29:08.023Z,43.62
2022-10-08T08:31:35.996Z,43.06
2022-10-08T08:34:13.241Z,42.74
2022-10-08T08:36:44.560Z,44.47
2022-10-08T08:39:19.068Z,44.67
2022-10-08T08:41:49.303Z,42.43
2022-10-08T08:44:16.639Z,43.45
2022-10-08T08:46:44.758Z,43.50
2022-10-08T08:49:16.643Z,41.42
2022-10-08T08:51:44.038Z,42.73
2022-10-08T08:54:11.235Z,42.39
2022-10-08T08:56:38.409Z,41.56
2022-10-08T08:59:08.586Z,43.09
2022-10-08T09:01:45.266Z,44.08
2022-10-08T09:04:31.497Z,44.51
2022-10-08T09:06:58.669Z,44.24
2022-10-08T09:09:34.145Z,44.55
2022-10-08T09:12:03.401Z,42.11
2022-10-08T09:14:44.523Z,43.45
2022-10-08T09:17:19.027Z,42.20
2022-10-08T09:19:46.642Z,39.80
2022-10-08T09:22:24.120Z,41.05
2022-10-08T09:24:56.479Z,40.27
2022-10-08T09:27:23.633Z,38.62
2022-10-08T09:29:50.752Z,37.80
2022-10-08T09:32:19.162Z,39.32
2022-10-08T09:34:48.310Z,38.17
2022-10-08T09:37:19.300Z,38.95
2022-10-08T09:40:06.245Z,37.77
2022-10-08T09:42:33.474Z,38.63
2022-10-08T09:45:03.999Z,36.49
2022-10-08T09:47:31.291Z,37.43
2022-10-08T09:50:07.607Z,37.05
2022-10-08T09:52:35.219Z,37.23
2022-10-08T09:55:03.880Z,38.00
2022-10-08T09:57:31.027Z,38.27
2022-10-08T10:00:00.169Z,37.03
2022-10-08T10:02:34.196Z,39.22
2022-10-08T10:05:03.202Z,40.37
2022-10-08T10:07:38.746Z,39.19
2022-10-08T10:10:09.525Z,37.98
2022-10-08T10:12:37.112Z,37.85
2022-10-08T10:15:07.405Z,38.90
2022-10-08T10:17:51.614Z,38.27
2022-10-08T10:20:24.751Z,37.75
2022-10-08T10:23:10.440Z,37.12
2022-10-08T10:25:43.859Z,37.46
2022-10-08T10:28:12.832Z,38.40
2022-10-08T10:30:48.183Z,36.79
2022-10-08T10:33:20.961Z,37.34
2022-10-08T10:35:52.980Z,36.52
2022-10-08T10:38:29.738Z,35.03
2022-10-08T10:41:09.437Z,37.56
2022-10-08T10:43:40.998Z,35.34
2022-10-08T10:46:26.877Z,36.12
2022-10-08T10:48:54.969Z,35.30
2022-10-08T10:51:42.478Z,36.13
2022-10-08T10:54:12.599Z,35.61
2022-10-08T10:56:42.528Z,36.37
2022-10-08T10:59:25.140Z,35.15
2022-10-08T11:02:00.861Z,34.92
2022-10-08T11:04:47.181Z,34.16
2022-10-08T11:07:23.336Z,34.13
2022-10-08T11:09:51.185Z,35.66
2022-10-08T11:12:21.361Z,34.31
2022-10-08T11:14:54.308Z,33.36
2022-10-08T11:17:34.008Z,34.25
2022-10-08T11:20:10.449Z,32.98
2022-10-08T11:22:39.501Z,33.36
2022-10-08T11:25:15.721Z,34.53
2022-10-08T11:27:43.074Z,33.57
2022-10-08T11:30:14.704Z,35.40
2022-10-08T11:32:42.877Z,32.69
2022-10-08T11:35:25.211Z,32.67
2022-10-08T11:37:52.313Z,32.56
2022-10-08T11:40:21.498Z,31.25
2022-10-08T11:42:55.005Z,32.73
2022-10-08T11:45:25.999Z,34.11
2022-10-08T11:47:54.426Z,32.57
2022-10-08T11:50:29.067Z,33.29
2022-10-08T11:52:57.548Z,34.87
2022-10-08T11:55:30.778Z,33.75
2022-10-08T11:58:09.557Z,34.24
2022-10-08T12:00:38.122Z,33.77
2022-10-08T12:03:06.364Z,34.00
2022-10-08T12:05:47.948Z,34.02
2022-10-08T12:08:36.688Z,34.54
2022-10-08T12:11:22.560Z,35.11
2022-10-08T12:14:11.170Z,35.65
2022-10-08T12:16:47.718Z,34.26
2022-10-08T12:19:33.380Z,34.76
2022-10-08T12:22:04.382Z,34.21
2022-10-08T12:24:37.783Z,35.26
2022-10-08T12:27:17.119Z,35.13
2022-10-08T12:30:03.725Z,34.88
2022-10-08T12:32:31.828Z,36.11
2022-10-08T12:34:59.541Z,35.39
2022-10-08T12:37:26.585Z,35.15
2022-10-08T12:39:53.918Z,34.32
2022-10-08T12:42:22.770Z,34.31
2022-10-08T12:45:11.371Z,34.88
2022-10-08T12:47:41.223Z,36.99
2022-10-08T12:50:23.689Z,36.15
2022-10-08T12:52:51.103Z,35.15
2022-10-08T12:55:19.005Z,36.49
2022-10-08T12:57:46.930Z,35.59
2022-10-08T13:00:24.602Z,36.55
2022-10-08T13:03:20.202Z,34.04
2022-10-08T13:05:48.198Z,33.98
2022-10-08T13:08:34.932Z,35.41
2022-10-08T13:11:04.103Z,34.64
2022-10-08T13:13:40.260Z,35.66
2022-10-08T13:16:14.613Z,37.79
2022-10-08T13:18:48.940Z,37.48
2022-10-08T13:21:31.646Z,36.44
2022-10-08T13:23:59.267Z,35.25
2022-10-08T13:26:46.047Z,35.30
2022-10-08T13:29:22.437Z,35.93
2022-10-08T13:32:03.995Z,34.95
2022-10-08T13:34:32.088Z,36.07
2022-10-08T13:37:00.669Z,33.70
2022-10-08T13:39:29.050Z,32.40
2022-10-08T13:41:57.839Z,33.42
2022-10-08T13:44:25.373Z,33.25
2022-10-08T13:46:52.654Z,33.00
2022-10-08T13:49:21.222Z,32.81
2022-10-08T13:51:49.106Z,34.57
2022-10-08T13:54:23.583Z,34.03
2022-10-08T13:56:51.090Z,34.89
2022-10-08T13:59:18.634Z,35.11
2022-10-08T14:01:46.037Z,36.39
2022-10-08T14:04:13.711Z,35.30
2022-10-08T14:06:40.983Z,35.31
2022-10-08T14:09:09.657Z,34.00
2022-10-08T14:11:37.564Z,36.04
2022-10-08T14:14:04.693Z,36.24
2022-10-08T14:16:31.866Z,33.29
2022-10-08T14:18:59.623Z,32.81
2022-10-08T14:21:26.767Z,33.50
2022-10-08T14:23:53.893Z,35.34
2022-10-08T14:26:21.302Z,36.33
2022-10-08T14:28:48.510Z,36.29
2022-10-08T14:31:15.813Z,37.18
2022-10-08T14:33:43.258Z,35.81
2022-10-08T14:36:17.402Z,36.32
2022-10-08T14:38:44.801Z,36.36
2022-10-08T14:41:13.815Z,37.02
2022-10-08T14:43:41.033Z,37.29
2022-10-08T14:46:08.683Z,37.75
2022-10-08T14:48:35.854Z,37.19
2022-10-08T14:51:03.074Z,37.53
2022-10-08T14:53:30.461Z,37.39
2022-10-08T14:56:11.704Z,38.07
2022-10-08T14:58:40.393Z,38.38
2022-10-08T15:01:07.608Z,38.22
2022-10-08T15:03:34.772Z,37.80
2022-10-08T15:06:02.252Z,38.12
2022-10-08T15:08:29.380Z,38.25
2022-10-08T15:10:56.514Z,38.66
2022-10-08T15:13:23.977Z,38.37
2022-10-08T15:15:51.110Z,37.96
2022-10-08T15:18:18.246Z,38.16
2022-10-08T15:20:53.207Z,38.22
2022-10-08T15:23:20.328Z,38.13
2022-10-08T15:25:54.759Z,37.89
2022-10-08T15:28:21.960Z,37.80
2022-10-08T15:30:49.473Z,37.74
2022-10-08T15:33:16.605Z,37.81
2022-10-08T15:35:44.273Z,37.79
2022-10-08T15:38:11.732Z,37.93
2022-10-08T15:40:38.873Z,37.53
2022-10-08T15:43:06.034Z,37.49
2022-10-08T15:45:35.925Z,37.58
2022-10-08T15:48:03.068Z,38.08
2022-10-08T15:50:30.235Z,37.82
2022-10-08T15:52:57.616Z,37.40
2022-10-08T15:55:24.774Z,37.43
2022-10-08T15:57:52.276Z,37.71
2022-10-08T16:00:19.667Z,37.33
2022-10-08T16:02:47.327Z,37.33
2022-10-08T16:05:14.779Z,37.17
2022-10-08T16:07:41.913Z,37.42
2022-10-08T16:10:09.305Z,37.47
2022-10-08T16:12:36.448Z,37.73
2022-10-08T16:15:03.664Z,37.88
2022-10-08T16:17:31.084Z,37.74
2022-10-08T16:19:58.212Z,37.50
2022-10-08T16:22:25.365Z,37.63
2022-10-08T16:24:52.770Z,37.55
2022-10-08T16:27:19.896Z,38.00
2022-10-08T16:29:47.015Z,38.24
2022-10-08T16:32:16.036Z,38.40
2022-10-08T16:34:45.301Z,38.41
2022-10-08T16:37:13.415Z,38.57
2022-10-08T16:39:41.307Z,38.39
2022-10-08T16:42:08.539Z,38.39
2022-10-08T16:44:35.636Z,38.55
2022-10-08T16:47:03.086Z,38.44
2022-10-08T16:49:30.287Z,38.51
2022-10-08T16:52:00.171Z,38.61
2022-10-08T16:54:27.963Z,38.80
2022-10-08T16:56:55.129Z,38.66
2022-10-08T16:59:23.392Z,39.01
2022-10-08T17:01:52.085Z,39.16
2022-10-08T17:04:19.666Z,39.02
2022-10-08T17:06:46.988Z,39.46
2022-10-08T17:09:14.505Z,39.73
2022-10-08T17:11:42.000Z,40.02
2022-10-08T17:14:10.295Z,39.58
2022-10-08T17:16:38.351Z,39.49
2022-10-08T17:19:05.705Z,39.18
2022-10-08T17:21:34.862Z,39.25
2022-10-08T17:24:02.912Z,39.04
2022-10-08T17:26:30.935Z,38.96
2022-10-08T17:29:02.136Z,38.90
2022-10-08T17:31:31.692Z,38.99
2022-10-08T17:33:59.637Z,39.53
2022-10-08T17:36:27.872Z,39.36
2022-10-08T17:38:56.481Z,39.63
2022-10-08T17:41:27.412Z,40.01
2022-10-08T17:43:58.101Z,40.01
2022-10-08T17:46:34.584Z,39.92
2022-10-08T17:49:03.147Z,39.87
2022-10-08T17:51:30.516Z,39.34
2022-10-08T17:53:58.661Z,39.16
2022-10-08T17:56:26.492Z,39.37
2022-10-08T17:58:53.995Z,39.26
2022-10-08T18:01:22.434Z,39.73
2022-10-08T18:03:53.933Z,39.48
2022-10-08T18:06:21.335Z,39.65
2022-10-08T18:08:48.885Z,39.42
2022-10-08T18:11:16.458Z,39.36
2022-10-08T18:13:44.001Z,39.40
2022-10-08T18:16:13.193Z,39.28
2022-10-08T18:18:41.289Z,39.32
2022-10-08T18:21:09.269Z,39.28
2022-10-08T18:23:37.056Z,39.61
2022-10-08T18:26:17.069Z,40.07
2022-10-08T18:28:44.937Z,40.42
2022-10-08T18:31:12.532Z,40.56
2022-10-08T18:33:40.332Z,40.94
2022-10-08T18:36:13.406Z,40.75
2022-10-08T18:38:41.068Z,40.75
2022-10-08T18:41:12.221Z,40.12
2022-10-08T18:43:39.356Z,39.77
2022-10-08T18:46:06.831Z,39.60
2022-10-08T18:48:34.680Z,39.49
2022-10-08T18:51:06.223Z,39.39
2022-10-08T18:53:34.159Z,39.39
2022-10-08T18:56:01.842Z,39.68
2022-10-08T18:58:29.518Z,39.63
2022-10-08T19:00:57.122Z,39.64
2022-10-08T19:03:24.803Z,39.13
2022-10-08T19:05:52.189Z,39.47
2022-10-08T19:08:19.580Z,40.27
2022-10-08T19:10:46.730Z,40.16
2022-10-08T19:13:13.909Z,40.40
2022-10-08T19:15:41.711Z,40.24
2022-10-08T19:18:08.998Z,40.26
2022-10-08T19:20:36.233Z,40.24
2022-10-08T19:23:03.664Z,40.14
2022-10-08T19:25:31.187Z,39.88
2022-10-08T19:27:58.368Z,39.79
2022-10-08T19:30:30.606Z,39.47
2022-10-08T19:33:01.844Z,39.44
2022-10-08T19:35:30.546Z,39.39
2022-10-08T19:37:58.180Z,39.59
2022-10-08T19:40:25.441Z,39.79
2022-10-08T19:42:53.256Z,39.70
2022-10-08T19:45:20.962Z,39.90
2022-10-08T19:47:48.644Z,40.12
2022-10-08T19:50:16.571Z,40.01
2022-10-08T19:52:46.556Z,39.75
2022-10-08T19:55:17.497Z,39.51
2022-10-08T19:57:44.903Z,40.05
2022-10-08T20:00:13.423Z,41.03
2022-10-08T20:02:40.852Z,40.85
2022-10-08T20:05:08.237Z,41.33
2022-10-08T20:07:35.372Z,40.88
2022-10-08T20:10:02.801Z,41.26
2022-10-08T20:12:35.246Z,41.84
2022-10-08T20:15:03.183Z,42.10
2022-10-08T20:17:30.391Z,42.09
2022-10-08T20:20:09.669Z,41.89
2022-10-08T20:22:44.972Z,42.00
2022-10-08T20:25:12.092Z,41.45
2022-10-08T20:27:39.255Z,41.10
2022-10-08T20:30:06.917Z,40.70
2022-10-08T20:32:34.077Z,40.45
2022-10-08T20:35:01.209Z,40.73
2022-10-08T20:37:28.631Z,40.64
2022-10-08T20:39:55.750Z,40.26
2022-10-08T20:42:23.497Z,40.23
2022-10-08T20:44:50.948Z,40.69
2022-10-08T20:47:18.066Z,41.44
2022-10-08T20:49:45.209Z,41.30
2022-10-08T20:52:12.647Z,41.22
2022-10-08T20:54:39.759Z,40.95
2022-10-08T20:57:06.907Z,40.85
2022-10-08T20:59:34.310Z,40.99
2022-10-08T21:02:01.563Z,40.85
2022-10-08T21:04:28.735Z,40.57
2022-10-08T21:06:56.099Z,40.48
2022-10-08T21:09:23.227Z,40.66
2022-10-08T21:11:50.409Z,40.78
2022-10-08T21:14:18.612Z,40.97
2022-10-08T21:16:45.755Z,41.04
2022-10-08T21:19:14.202Z,41.14
2022-10-08T21:21:41.699Z,41.32
2022-10-08T21:24:09.346Z,41.44
2022-10-08T21:26:39.471Z,41.57
2022-10-08T21:29:07.841Z,41.96
2022-10-08T21:31:35.602Z,41.39
2022-10-08T21:34:02.810Z,41.27
2022-10-08T21:36:31.230Z,40.86
2022-10-08T21:38:58.698Z,40.94
2022-10-08T21:41:27.708Z,40.99
2022-10-08T21:43:56.860Z,40.99
2022-10-08T21:46:30.355Z,41.10
2022-10-08T21:49:01.806Z,41.35
2022-10-08T21:51:29.243Z,41.12
2022-10-08T21:53:57.212Z,41.36
2022-10-08T21:56:25.610Z,41.28
2022-10-08T21:58:53.463Z,41.31
2022-10-08T22:01:21.898Z,41.15
2022-10-08T22:03:52.463Z,41.13
2022-10-08T22:06:19.581Z,41.47
2022-10-08T22:08:46.731Z,41.49
2022-10-08T22:11:14.108Z,41.45
2022-10-08T22:13:41.203Z,41.18
2022-10-08T22:16:08.785Z,41.85
2022-10-08T22:18:36.310Z,41.90
2022-10-08T22:21:07.681Z,41.83
2022-10-08T22:23:35.103Z,41.56
2022-10-08T22:26:03.811Z,42.03
2022-10-08T22:28:31.068Z,42.15
2022-10-08T22:30:58.858Z,41.66
2022-10-08T22:33:26.262Z,41.29
2022-10-08T22:35:53.371Z,42.31
2022-10-08T22:38:20.485Z,42.06
2022-10-08T22:40:47.887Z,41.74
2022-10-08T22:43:15.174Z,41.50
2022-10-08T22:45:42.340Z,41.41
2022-10-08T22:48:09.763Z,41.39
2022-10-08T22:50:38.221Z,41.68
2022-10-08T22:53:05.367Z,42.21
2022-10-08T22:55:32.768Z,42.34
2022-10-08T22:57:59.897Z,43.03
2022-10-08T23:00:27.061Z,42.39
2022-10-08T23:02:54.477Z,43.63
2022-10-08T23:05:21.649Z,44.02
2022-10-08T23:07:48.773Z,43.08
2022-10-08T23:10:16.166Z,43.33
2022-10-08T23:12:43.307Z,42.92
2022-10-08T23:15:10.501Z,42.83
2022-10-08T23:17:37.924Z,42.67
2022-10-08T23:20:05.330Z,43.06
2022-10-08T23:22:33.551Z,43.02
2022-10-08T23:25:00.950Z,42.55
2022-10-08T23:27:28.062Z,43.44
2022-10-08T23:29:56.228Z,43.23
2022-10-08T23:32:23.659Z,42.93
2022-10-08T23:34:50.755Z,42.89
2022-10-08T23:37:17.878Z,42.50
2022-10-08T23:39:45.261Z,42.39
2022-10-08T23:42:12.407Z,42.29
2022-10-08T23:44:39.548Z,42.40
2022-10-08T23:47:07.023Z,42.55
2022-10-08T23:49:34.288Z,42.58
2022-10-08T23:52:01.627Z,42.31
2022-10-08T23:54:29.001Z,42.43
2022-10-08T23:56:56.120Z,42.56
2022-10-08T23:59:23.233Z,42.94
